METAR Data
IDs: Format: Raw Decoded Include TAF

Data at: 2232 UTC 02 Aug 2021

LRCL 022200Z 29004KT 250V320 CAVOK 17/15 Q1015